Time;durP1;ratioP1;P1;durP2;ratioP2;P2;SDS_P1;SDS_P2;PMS_P1;PMS_P2;Temp;Humidity;BMP_temperature;BMP_pressure;BME280_temperature;BME280_humidity;BME280_pressure;Samples;Min_cycle;Max_cycle;Signal;HPM_P1;HPM_P2
2022/12/26 00:01:28;;;;;;;135.90;81.75;;;6.40;99.90;;;;;;5006549;28;21513;-71
2022/12/26 00:04:03;;;;;;;132.35;78.50;;;6.30;99.90;;;;;;5028322;28;20034;-74
2022/12/26 00:06:55;;;;;;;121.82;73.97;;;6.30;99.90;;;;;;5002565;28;20048;-73
2022/12/26 00:09:22;;;;;;;137.23;77.82;;;6.40;99.90;;;;;;5013773;28;20508;-76
2022/12/26 00:11:50;;;;;;;135.48;80.78;;;6.30;99.90;;;;;;4998666;28;20441;-73
2022/12/26 00:14:20;;;;;;;135.90;78.88;;;6.40;99.90;;;;;;5015748;28;20078;-75
2022/12/26 00:16:47;;;;;;;130.02;81.05;;;6.50;99.90;;;;;;4998259;28;20433;-74
2022/12/26 00:19:15;;;;;;;137.63;80.13;;;6.50;99.90;;;;;;5008190;28;20109;-75
2022/12/26 00:21:42;;;;;;;129.02;77.53;;;6.50;99.90;;;;;;4994265;28;20046;-71
2022/12/26 00:24:14;;;;;;;126.13;79.07;;;6.50;99.90;;;;;;4978691;28;20046;-71
2022/12/26 00:26:47;;;;;;;131.98;76.28;;;6.60;99.90;;;;;;4993857;28;20047;-72
2022/12/26 00:29:15;;;;;;;132.57;76.40;;;6.50;99.90;;;;;;4979481;28;20042;-75
2022/12/26 00:31:42;;;;;;;132.15;76.95;;;6.50;99.90;;;;;;4995627;28;20049;-76
2022/12/26 00:34:09;;;;;;;139.25;79.25;;;6.50;99.90;;;;;;4978837;28;20054;-77
2022/12/26 00:36:40;;;;;;;134.02;78.28;;;6.40;99.90;;;;;;4995144;28;20100;-69
2022/12/26 00:39:08;;;;;;;146.98;80.68;;;6.40;99.90;;;;;;5010728;28;20058;-69
2022/12/26 00:41:36;;;;;;;139.15;79.57;;;6.40;99.90;;;;;;4994166;28;20057;-69
2022/12/26 00:44:05;;;;;;;127.93;79.13;;;6.40;99.90;;;;;;4994048;28;20093;-70
2022/12/26 00:46:33;;;;;;;129.10;79.17;;;6.40;99.90;;;;;;4994559;28;20065;-70
2022/12/26 00:49:00;;;;;;;131.48;78.90;;;6.40;99.90;;;;;;4997248;28;20434;-75
2022/12/26 00:51:27;;;;;;;130.43;79.43;;;6.30;99.90;;;;;;4993975;28;20537;-69
2022/12/26 00:53:55;;;;;;;129.07;79.75;;;6.40;99.90;;;;;;4993973;28;20081;-70
2022/12/26 00:56:22;;;;;;;126.50;76.40;;;6.40;99.90;;;;;;5001317;28;20521;-74
2022/12/26 00:58:49;;;;;;;122.30;78.07;;;6.40;99.90;;;;;;5004046;28;20061;-72
2022/12/26 01:01:20;;;;;;;129.88;77.03;;;6.50;99.90;;;;;;4986263;28;20157;-75
2022/12/26 01:03:48;;;;;;;;;;;6.50;99.90;;;;;;5020843;28;20128;-76
2022/12/26 01:06:16;;;;;;;130.07;75.80;;;6.50;99.90;;;;;;4996246;28;20008;-72
2022/12/26 01:08:46;;;;;;;114.03;73.05;;;6.40;99.90;;;;;;4988134;28;20096;-73
2022/12/26 01:11:38;;;;;;;114.57;69.78;;;6.30;99.90;;;;;;5002578;28;20486;-74
2022/12/26 01:14:03;;;;;;;107.05;65.80;;;6.20;99.90;;;;;;5002754;28;20050;-75
2022/12/26 01:16:31;;;;;;;107.22;66.57;;;6.20;99.90;;;;;;4993781;28;20496;-74
2022/12/26 01:19:00;;;;;;;114.93;68.40;;;6.30;99.90;;;;;;5007393;28;20457;-69
2022/12/26 01:21:28;;;;;;;121.00;72.80;;;6.30;99.90;;;;;;5016807;28;20054;-69
2022/12/26 01:23:55;;;;;;;119.07;72.03;;;6.30;99.90;;;;;;4990279;28;20041;-74
2022/12/26 01:26:31;;;;;;;117.47;69.47;;;6.30;99.90;;;;;;5006365;28;20394;-70
2022/12/26 01:28:58;;;;;;;118.22;69.13;;;6.30;99.90;;;;;;4987983;28;20082;-72
2022/12/26 01:31:29;;;;;;;110.50;66.13;;;6.30;99.90;;;;;;5001983;28;20046;-69
2022/12/26 01:33:58;;;;;;;106.90;63.35;;;6.20;99.90;;;;;;4988905;28;20038;-71
2022/12/26 01:36:25;;;;;;;102.65;63.63;;;6.20;99.90;;;;;;4993702;28;20060;-69
2022/12/26 01:38:53;;;;;;;99.07;61.92;;;6.20;99.90;;;;;;5009382;28;20045;-70
2022/12/26 01:41:23;;;;;;;102.05;59.35;;;6.20;99.90;;;;;;4992716;28;20060;-69
2022/12/26 01:43:52;;;;;;;94.82;56.88;;;6.20;99.90;;;;;;4976824;28;20057;-72
2022/12/26 01:46:34;;;;;;;95.57;57.47;;;6.20;99.90;;;;;;4993673;28;20039;-69
2022/12/26 01:49:12;;;;;;;89.80;56.22;;;6.20;99.90;;;;;;4977222;28;20049;-70
2022/12/26 01:51:43;;;;;;;88.25;53.72;;;6.20;99.90;;;;;;4976697;28;20046;-71
2022/12/26 01:54:14;;;;;;;92.90;52.28;;;6.30;99.90;;;;;;4994059;28;20121;-74
2022/12/26 01:57:05;;;;;;;82.25;49.97;;;6.20;99.90;;;;;;4992883;28;20118;-73
2022/12/26 01:59:39;;;;;;;82.68;52.47;;;6.00;99.90;;;;;;4992796;28;20053;-71
2022/12/26 02:02:07;;;;;;;95.85;51.38;;;6.00;99.90;;;;;;4992470;28;20058;-77
2022/12/26 02:07:27;;;;;;;94.00;53.67;;;6.00;99.90;;;;;;4992499;28;20100;-72
2022/12/26 02:09:57;;;;;;;89.85;53.17;;;6.10;99.90;;;;;;4993068;28;20053;-70
2022/12/26 02:12:31;;;;;;;88.38;52.88;;;5.90;99.90;;;;;;4992766;28;20050;-73
2022/12/26 02:15:11;;;;;;;87.55;51.75;;;5.90;99.90;;;;;;4992984;28;20046;-75
2022/12/26 02:17:42;;;;;;;84.65;50.28;;;6.00;99.90;;;;;;4979498;28;20397;-69
2022/12/26 02:20:10;;;;;;;92.80;52.50;;;6.00;99.90;;;;;;4992989;28;20053;-76
2022/12/26 02:22:46;;;;;;;100.53;56.30;;;6.00;99.90;;;;;;5008462;28;20042;-69
2022/12/26 02:25:25;;;;;;;89.78;56.28;;;6.00;99.90;;;;;;5008939;28;20074;-74
2022/12/26 02:28:40;;;;;;;95.35;57.28;;;5.90;99.90;;;;;;4992496;28;20046;-69
2022/12/26 02:31:36;;;;;;;113.55;65.35;;;5.90;99.90;;;;;;4992998;28;20077;-75
2022/12/26 02:34:13;;;;;;;125.13;72.85;;;6.00;99.90;;;;;;4993521;28;20169;-71
2022/12/26 02:37:35;;;;;;;133.48;76.13;;;5.90;99.90;;;;;;5007865;28;20065;-70
2022/12/26 02:40:27;;;;;;;135.55;75.45;;;5.70;99.90;;;;;;4933885;29;20404;-74
2022/12/26 02:43:17;;;;;;;130.32;71.90;;;5.60;99.90;;;;;;4975911;28;20080;-71
2022/12/26 02:49:19;;;;;;;116.00;65.53;;;5.20;99.90;;;;;;4993332;28;20097;-70
2022/12/26 03:13:09;;;;;;;126.18;74.63;;;5.50;99.90;;;;;;5012133;28;20379;-73
2022/12/26 03:18:55;;;;;;;128.25;74.85;;;5.30;99.90;;;;;;5011495;28;20060;-75
2022/12/26 03:21:31;;;;;;;133.32;77.00;;;5.30;99.90;;;;;;4994787;28;20049;-69
2022/12/26 03:23:59;;;;;;;118.32;71.05;;;5.40;99.90;;;;;;5012629;28;20113;-74
2022/12/26 03:26:40;;;;;;;127.70;75.65;;;5.30;99.90;;;;;;4994815;28;20374;-73
2022/12/26 03:32:07;;;;;;;99.65;63.10;;;5.10;99.90;;;;;;4994866;28;20523;-75
2022/12/26 03:34:41;;;;;;;95.35;55.30;;;5.20;99.90;;;;;;4995084;28;20125;-72
2022/12/26 03:37:33;;;;;;;95.07;55.67;;;5.20;99.90;;;;;;5012090;28;20042;-70
2022/12/26 04:20:59;;;;;;;81.78;49.60;;;5.20;99.90;;;;;;4998271;28;20075;-68
2022/12/26 04:44:34;;;;;;;75.45;46.75;;;4.90;99.90;;;;;;5014022;28;20124;-70
2022/12/26 04:47:04;;;;;;;65.93;42.78;;;4.80;99.90;;;;;;4997381;28;20108;-72
2022/12/26 04:55:19;;;;;;;65.90;41.22;;;4.80;99.90;;;;;;5013830;28;20038;-69
2022/12/26 04:57:47;;;;;;;65.60;40.22;;;4.80;99.90;;;;;;5012767;28;20053;-75
2022/12/26 05:00:14;;;;;;;67.80;38.03;;;4.70;99.90;;;;;;4997165;28;20449;-71
2022/12/26 05:11:15;;;;;;;62.45;36.38;;;4.90;99.90;;;;;;5014101;28;20525;-70
2022/12/26 05:13:47;;;;;;;54.90;34.75;;;5.00;99.90;;;;;;5014027;28;20117;-77
2022/12/26 05:30:28;;;;;;;59.20;33.88;;;4.60;99.90;;;;;;4996554;28;20127;-71
2022/12/26 05:35:42;;;;;;;55.88;32.22;;;4.60;99.90;;;;;;5016045;28;20045;-73
2022/12/26 05:38:10;;;;;;;49.42;30.92;;;4.50;99.90;;;;;;5033302;28;20053;-73
2022/12/26 05:40:37;;;;;;;52.13;33.95;;;4.50;99.90;;;;;;5015820;28;20045;-73
2022/12/26 05:43:05;;;;;;;52.08;33.65;;;4.40;99.90;;;;;;5015658;28;20045;-71
2022/12/26 05:45:32;;;;;;;62.67;37.05;;;4.40;99.90;;;;;;5033370;28;20619;-76
2022/12/26 05:48:01;;;;;;;52.28;35.45;;;4.30;99.90;;;;;;5033227;28;20413;-69
2022/12/26 05:50:28;;;;;;;81.72;46.97;;;4.20;99.90;;;;;;5016123;28;20128;-75
2022/12/26 05:52:58;;;;;;;194.43;103.07;;;4.30;99.90;;;;;;5000170;28;20041;-71
2022/12/26 05:55:27;;;;;;;221.02;112.65;;;4.60;99.90;;;;;;4999967;28;20053;-74
2022/12/26 05:57:55;;;;;;;133.55;74.43;;;4.80;99.90;;;;;;5031610;28;20081;-73
2022/12/26 06:00:22;;;;;;;200.18;104.35;;;4.80;99.90;;;;;;5015614;28;20056;-72
2022/12/26 06:02:50;;;;;;;210.13;110.90;;;4.80;99.90;;;;;;5032064;28;20049;-73
2022/12/26 06:05:17;;;;;;;61.70;42.83;;;4.90;99.90;;;;;;4999091;28;20051;-74
2022/12/26 06:07:44;;;;;;;53.22;34.38;;;4.50;99.90;;;;;;5032422;28;20559;-74
2022/12/26 06:10:12;;;;;;;52.53;32.70;;;4.40;99.90;;;;;;5032938;28;20045;-72
2022/12/26 06:12:39;;;;;;;47.72;31.02;;;4.30;99.90;;;;;;4998931;28;20388;-79
2022/12/26 06:15:07;;;;;;;49.33;32.30;;;4.40;99.90;;;;;;4999342;28;20068;-72
2022/12/26 06:17:35;;;;;;;49.80;30.55;;;4.40;99.90;;;;;;4999350;28;20049;-74
2022/12/26 06:20:02;;;;;;;50.85;32.45;;;4.50;99.90;;;;;;5032486;28;20045;-71
2022/12/26 06:22:29;;;;;;;52.72;33.70;;;4.60;99.90;;;;;;4999255;28;20045;-71
2022/12/26 06:24:59;;;;;;;51.13;32.13;;;4.70;99.90;;;;;;4999376;28;20049;-79
2022/12/26 06:27:27;;;;;;;;;;;4.70;99.90;;;;;;5015368;28;20051;-74
2022/12/26 06:29:54;;;;;;;50.00;29.58;;;4.60;99.90;;;;;;5032192;28;19925;-72
2022/12/26 06:32:21;;;;;;;45.28;30.52;;;4.60;99.90;;;;;;4999387;28;20041;-72
2022/12/26 06:34:52;;;;;;;;;;;4.50;99.90;;;;;;5016533;28;20050;-73
2022/12/26 06:37:22;;;;;;;51.35;28.80;;;4.50;99.90;;;;;;5016216;28;19921;-72
2022/12/26 06:39:49;;;;;;;49.58;30.92;;;4.50;99.90;;;;;;5015426;28;20037;-74
2022/12/26 06:42:17;;;;;;;55.45;34.55;;;4.40;99.90;;;;;;5015359;28;20057;-74
2022/12/26 06:44:44;;;;;;;58.80;36.08;;;4.40;99.90;;;;;;4999173;28;20049;-71
2022/12/26 06:47:14;;;;;;;56.17;35.83;;;4.40;99.90;;;;;;5014696;28;20049;-72
2022/12/26 06:49:42;;;;;;;65.35;42.03;;;4.50;99.90;;;;;;4999986;28;20397;-75
2022/12/26 06:52:10;;;;;;;72.60;41.40;;;4.50;99.90;;;;;;5015588;28;20057;-71
2022/12/26 06:54:39;;;;;;;72.63;41.95;;;4.40;99.90;;;;;;5015541;28;20089;-71
2022/12/26 06:57:12;;;;;;;67.25;41.95;;;4.40;99.90;;;;;;5006561;28;20046;-72
2022/12/26 06:59:39;;;;;;;73.38;41.20;;;4.60;99.90;;;;;;5039559;28;20052;-74
2022/12/26 07:02:12;;;;;;;64.30;41.20;;;4.70;99.90;;;;;;5034509;28;20131;-77
2022/12/26 07:04:40;;;;;;;66.00;41.63;;;4.70;99.90;;;;;;5013829;28;20055;-74
2022/12/26 07:07:07;;;;;;;70.35;41.95;;;4.70;99.90;;;;;;5040746;28;20036;-72
2022/12/26 07:09:37;;;;;;;61.65;40.20;;;4.70;99.90;;;;;;5026903;28;20451;-78
2022/12/26 07:12:06;;;;;;;64.68;39.65;;;4.70;99.90;;;;;;5018773;28;20489;-76
2022/12/26 07:14:35;;;;;;;57.00;37.20;;;4.70;99.90;;;;;;5052335;28;20151;-72
2022/12/26 07:17:18;;;;;;;54.90;35.20;;;4.70;99.90;;;;;;5034723;28;20377;-80
2022/12/26 07:19:46;;;;;;;53.20;34.15;;;4.60;99.90;;;;;;5022686;28;20049;-71
2022/12/26 07:22:13;;;;;;;52.95;31.90;;;4.60;99.90;;;;;;5020747;28;20050;-76
2022/12/26 07:24:40;;;;;;;52.30;31.77;;;4.60;99.90;;;;;;5023381;28;20477;-74
2022/12/26 07:27:08;;;;;;;49.05;32.40;;;4.50;99.90;;;;;;5026897;28;20125;-76
2022/12/26 07:29:35;;;;;;;54.10;34.25;;;4.80;99.90;;;;;;5030989;28;20060;-73
2022/12/26 07:32:02;;;;;;;55.22;36.22;;;4.90;99.90;;;;;;5046233;28;20358;-78
2022/12/26 07:34:30;;;;;;;49.70;32.63;;;4.90;99.90;;;;;;5021603;28;20059;-79
2022/12/26 07:36:58;;;;;;;50.65;31.80;;;5.00;99.90;;;;;;4997806;28;20054;-76
2022/12/26 07:39:25;;;;;;;46.15;31.55;;;5.00;99.90;;;;;;5007667;28;20053;-74
2022/12/26 07:41:59;;;;;;;48.22;29.30;;;5.10;99.90;;;;;;5027210;28;20041;-75
2022/12/26 07:44:28;;;;;;;51.00;30.13;;;5.30;99.90;;;;;;5024810;28;20054;-75
2022/12/26 07:46:56;;;;;;;44.15;29.45;;;5.40;99.90;;;;;;5044575;28;20423;-72
2022/12/26 07:49:24;;;;;;;45.38;32.78;;;5.40;99.90;;;;;;5045908;28;20048;-77
2022/12/26 07:51:52;;;;;;;51.33;32.58;;;5.50;99.90;;;;;;5028806;28;20084;-79
2022/12/26 07:54:20;;;;;;;44.95;30.42;;;5.50;99.90;;;;;;5012650;28;20420;-79
2022/12/26 07:56:47;;;;;;;48.63;31.70;;;5.50;99.90;;;;;;5017001;28;20041;-78
2022/12/26 07:59:16;;;;;;;51.38;33.50;;;5.60;99.90;;;;;;5027825;28;20060;-74
2022/12/26 08:01:46;;;;;;;43.00;30.27;;;5.80;99.90;;;;;;5016826;28;20046;-79
2022/12/26 08:04:16;;;;;;;45.92;30.33;;;5.90;99.90;;;;;;5011720;28;20049;-69
2022/12/26 08:06:45;;;;;;;44.25;32.25;;;5.90;99.90;;;;;;5020855;28;20045;-79
2022/12/26 08:09:17;;;;;;;43.38;31.10;;;6.00;99.90;;;;;;5026060;28;20052;-70
2022/12/26 08:11:46;;;;;;;44.35;28.63;;;6.10;99.90;;;;;;5020946;28;20037;-72
2022/12/26 08:14:16;;;;;;;42.28;30.35;;;6.20;99.90;;;;;;5028960;28;20053;-74
2022/12/26 08:16:44;;;;;;;43.35;31.00;;;6.30;99.90;;;;;;5027152;28;20030;-81
2022/12/26 08:19:18;;;;;;;45.53;32.22;;;6.30;99.90;;;;;;5046434;28;20052;-72
2022/12/26 08:21:46;;;;;;;53.45;33.53;;;6.40;99.90;;;;;;5017034;28;20065;-78
2022/12/26 08:24:15;;;;;;;55.83;35.25;;;6.40;99.90;;;;;;5045213;28;20095;-72
2022/12/26 08:26:46;;;;;;;67.03;37.25;;;6.50;99.90;;;;;;5018578;28;20041;-75
2022/12/26 08:29:22;;;;;;;59.30;36.60;;;6.50;99.90;;;;;;5046115;28;20049;-73
2022/12/26 08:31:52;;;;;;;72.80;42.85;;;6.50;99.90;;;;;;5009472;28;20038;-70
2022/12/26 08:34:20;;;;;;;72.30;45.55;;;6.60;99.90;;;;;;5010230;28;20370;-69
2022/12/26 08:36:51;;;;;;;69.45;44.17;;;6.80;99.90;;;;;;5006892;28;20049;-70
2022/12/26 08:39:18;;;;;;;64.43;42.88;;;6.80;99.90;;;;;;5010500;28;20532;-77
2022/12/26 08:41:45;;;;;;;71.68;45.20;;;6.70;99.90;;;;;;5017224;28;20091;-72
2022/12/26 08:44:13;;;;;;;66.40;44.22;;;6.80;99.90;;;;;;5010363;28;20048;-77
2022/12/26 08:46:56;;;;;;;73.93;45.40;;;6.80;99.90;;;;;;5027195;28;20045;-72
2022/12/26 08:49:23;;;;;;;62.25;42.97;;;6.90;99.90;;;;;;5027545;28;20065;-79
2022/12/26 08:51:51;;;;;;;71.38;42.47;;;6.60;99.90;;;;;;5043499;28;20045;-71
2022/12/26 08:54:18;;;;;;;61.00;40.47;;;6.70;99.90;;;;;;5048657;28;20064;-71
2022/12/26 08:56:45;;;;;;;70.78;39.42;;;6.80;99.90;;;;;;5039658;28;20042;-71
2022/12/26 08:59:12;;;;;;;59.40;37.17;;;7.00;99.90;;;;;;5049333;28;20046;-74
2022/12/26 09:01:42;;;;;;;53.55;35.30;;;7.20;99.90;;;;;;5015315;28;20054;-75
2022/12/26 09:04:10;;;;;;;52.42;34.30;;;7.40;99.90;;;;;;5000861;28;20053;-73
2022/12/26 09:06:39;;;;;;;60.00;37.67;;;7.70;99.90;;;;;;5017405;28;20055;-72
2022/12/26 09:09:13;;;;;;;57.60;35.40;;;8.00;99.90;;;;;;5000820;28;20046;-71
2022/12/26 09:11:41;;;;;;;57.60;37.38;;;8.00;99.90;;;;;;5016846;28;20491;-71
2022/12/26 09:14:13;;;;;;;51.00;34.25;;;8.20;99.90;;;;;;5033576;28;20409;-70
2022/12/26 09:16:47;;;;;;;53.08;34.65;;;8.40;99.90;;;;;;5016776;28;20041;-71
2022/12/26 09:19:18;;;;;;;49.53;33.40;;;8.40;99.90;;;;;;5034205;28;20485;-73
2022/12/26 09:21:47;;;;;;;50.20;31.85;;;8.00;99.90;;;;;;5025006;28;20041;-76
2022/12/26 09:24:23;;;;;;;46.17;32.17;;;8.00;99.90;;;;;;5047832;28;20091;-74
2022/12/26 09:26:51;;;;;;;46.08;30.50;;;8.10;99.90;;;;;;5015640;28;20063;-74
2022/12/26 09:29:20;;;;;;;54.13;32.78;;;8.30;99.90;;;;;;5043602;28;20099;-75
2022/12/26 09:31:54;;;;;;;54.75;31.15;;;8.60;99.90;;;;;;5024771;28;20044;-75
2022/12/26 09:34:24;;;;;;;48.65;30.75;;;8.70;99.90;;;;;;5028197;28;20444;-73
2022/12/26 09:36:53;;;;;;;42.47;27.65;;;8.80;99.90;;;;;;5026010;28;20045;-74
2022/12/26 09:39:20;;;;;;;49.03;30.23;;;8.60;99.90;;;;;;5026472;28;20049;-76
2022/12/26 09:42:01;;;;;;;63.08;34.15;;;8.80;99.90;;;;;;5026392;28;20392;-78
2022/12/26 09:44:57;;;;;;;52.45;32.83;;;8.90;99.90;;;;;;5046966;28;20047;-76
2022/12/26 09:47:32;;;;;;;59.88;34.50;;;9.10;99.90;;;;;;5009670;28;20064;-70
2022/12/26 09:50:08;;;;;;;47.50;30.48;;;9.10;99.90;;;;;;5020841;28;20041;-66
2022/12/26 09:52:44;;;;;;;43.85;29.08;;;8.90;99.90;;;;;;5022569;28;20045;-73
2022/12/26 09:55:48;;;;;;;42.28;27.08;;;9.10;99.90;;;;;;5041585;28;20049;-70
2022/12/26 09:58:38;;;;;;;45.30;29.85;;;9.40;99.90;;;;;;5024116;28;20056;-77
2022/12/26 10:01:12;;;;;;;56.88;33.15;;;9.60;99.90;;;;;;5026090;28;20045;-71
2022/12/26 10:03:52;;;;;;;50.03;30.25;;;9.80;99.90;;;;;;5024879;28;20381;-73
2022/12/26 10:06:48;;;;;;;51.20;32.40;;;10.00;99.90;;;;;;5043066;28;20106;-72
2022/12/26 10:09:53;;;;;;;49.67;29.15;;;10.30;99.90;;;;;;5005412;28;20042;-70
2022/12/26 10:12:37;;;;;;;52.60;29.25;;;10.50;99.90;;;;;;5023015;28;20044;-73
2022/12/26 10:15:34;;;;;;;60.42;28.40;;;10.60;99.90;;;;;;5016445;28;20049;-74
2022/12/26 10:18:14;;;;;;;53.28;28.42;;;10.70;99.90;;;;;;5004891;28;20136;-71
2022/12/26 10:21:21;;;;;;;55.72;29.48;;;10.80;99.90;;;;;;5013201;28;20128;-80
2022/12/26 10:23:56;;;;;;;53.15;29.70;;;11.10;99.90;;;;;;4940784;28;20477;-77
2022/12/26 10:26:45;;;;;;;57.42;29.98;;;11.30;99.90;;;;;;5056254;28;20316;-70
2022/12/26 10:29:23;;;;;;;54.80;29.67;;;11.00;99.90;;;;;;5026929;28;20552;-72
2022/12/26 10:31:56;;;;;;;50.58;29.13;;;10.90;99.90;;;;;;5021609;28;20052;-76
2022/12/26 10:34:36;;;;;;;57.30;29.88;;;10.90;99.90;;;;;;5008251;28;20037;-71
2022/12/26 10:37:26;;;;;;;51.90;28.13;;;10.70;99.90;;;;;;5020900;28;20041;-70
2022/12/26 10:40:37;;;;;;;51.65;28.10;;;11.00;99.90;;;;;;5025400;28;20049;-75
2022/12/26 10:43:29;;;;;;;49.63;28.35;;;11.20;99.90;;;;;;5017585;28;20054;-75
2022/12/26 10:46:07;;;;;;;47.25;27.27;;;11.50;99.90;;;;;;5032477;28;20369;-70
2022/12/26 10:48:37;;;;;;;50.28;27.20;;;11.50;99.90;;;;;;5039801;28;20049;-77
2022/12/26 10:51:05;;;;;;;;;;;11.80;99.90;;;;;;5016868;28;20394;-69
2022/12/26 10:53:42;;;;;;;46.00;25.17;;;11.80;99.90;;;;;;4984663;28;19944;-77
2022/12/26 10:56:13;;;;;;;46.47;27.13;;;12.00;99.90;;;;;;5020275;28;20412;-75
2022/12/26 10:58:45;;;;;;;44.63;25.17;;;12.20;99.90;;;;;;5020532;28;20480;-70
2022/12/26 11:01:28;;;;;;;44.13;26.20;;;12.20;99.90;;;;;;5019936;28;20057;-79
2022/12/26 11:04:29;;;;;;;42.53;25.52;;;12.50;99.90;;;;;;5019813;28;20041;-70
2022/12/26 11:07:19;;;;;;;;;;;12.80;99.90;;;;;;5011364;28;20049;-78
2022/12/26 11:09:54;;;;;;;43.38;26.58;;;13.40;99.50;;;;;;5018790;28;19936;-71
2022/12/26 11:12:25;;;;;;;43.50;25.85;;;13.80;98.10;;;;;;5018122;28;20144;-79
2022/12/26 11:14:57;;;;;;;;;;;13.60;97.30;;;;;;5031192;28;20481;-77
2022/12/26 11:17:30;;;;;;;49.28;28.15;;;13.60;97.30;;;;;;5045820;28;19924;-72
2022/12/26 11:20:16;;;;;;;46.35;27.60;;;14.00;96.80;;;;;;5006753;28;20049;-70
2022/12/26 11:22:45;;;;;;;50.60;27.48;;;14.40;95.70;;;;;;5044696;28;20039;-78
2022/12/26 11:25:28;;;;;;;48.90;28.10;;;14.60;97.70;;;;;;5036092;28;20045;-75
2022/12/26 11:28:19;;;;;;;46.20;26.73;;;14.60;95.60;;;;;;5025108;28;20036;-70
2022/12/26 11:30:47;;;;;;;48.10;26.52;;;14.00;95.10;;;;;;5018047;28;20076;-73
2022/12/26 11:33:26;;;;;;;43.33;27.13;;;14.60;98.60;;;;;;5001291;28;20037;-71
2022/12/26 11:35:58;;;;;;;47.08;23.88;;;15.10;95.90;;;;;;5019283;28;20416;-76
2022/12/26 11:38:39;;;;;;;43.60;23.95;;;15.20;95.00;;;;;;5036537;28;20045;-70
2022/12/26 11:41:39;;;;;;;38.67;24.67;;;14.90;93.90;;;;;;4999642;28;20386;-72
2022/12/26 11:44:14;;;;;;;51.45;28.23;;;15.50;95.30;;;;;;5006816;28;20029;-75
2022/12/26 11:46:51;;;;;;;41.75;24.60;;;15.70;92.70;;;;;;5035361;28;20049;-72
2022/12/26 11:49:37;;;;;;;34.00;22.67;;;15.40;91.80;;;;;;4998046;28;20046;-73
2022/12/26 11:52:34;;;;;;;32.47;20.70;;;15.50;92.30;;;;;;5002767;28;20098;-69
2022/12/26 11:55:21;;;;;;;38.60;23.00;;;15.50;90.80;;;;;;5001794;28;20157;-71
2022/12/26 11:58:09;;;;;;;37.90;22.40;;;15.40;91.40;;;;;;5001976;28;20053;-70
2022/12/26 12:01:04;;;;;;;34.75;21.55;;;15.50;90.70;;;;;;5018071;28;20374;-72
2022/12/26 12:03:40;;;;;;;38.47;23.10;;;15.60;90.20;;;;;;5017949;28;20060;-76
2022/12/26 12:06:53;;;;;;;36.80;22.70;;;15.70;89.40;;;;;;5035478;28;20124;-70
2022/12/26 12:09:43;;;;;;;34.65;21.98;;;15.70;89.50;;;;;;5019877;28;20056;-77
2022/12/26 12:12:45;;;;;;;35.63;23.60;;;15.90;90.30;;;;;;5001632;28;20065;-72
2022/12/26 12:15:52;;;;;;;39.90;24.77;;;16.20;90.20;;;;;;5019153;28;20068;-72
2022/12/26 12:18:26;;;;;;;41.45;26.17;;;15.80;88.80;;;;;;4979247;28;20327;-72
2022/12/26 12:21:32;;;;;;;42.78;28.00;;;15.70;88.50;;;;;;5018019;28;20110;-72
2022/12/26 12:24:24;;;;;;;36.58;25.23;;;15.80;88.40;;;;;;5036849;28;20119;-72
2022/12/26 12:26:57;;;;;;;36.88;24.33;;;15.70;88.30;;;;;;5054594;28;20124;-72
2022/12/26 12:29:49;;;;;;;36.45;24.45;;;16.10;87.20;;;;;;5021505;28;20071;-70
2022/12/26 12:32:24;;;;;;;34.60;24.90;;;16.30;88.10;;;;;;5020932;28;20052;-71
2022/12/26 12:35:24;;;;;;;37.38;26.77;;;16.60;86.30;;;;;;4996365;28;20038;-71
2022/12/26 12:38:30;;;;;;;31.33;22.60;;;17.20;85.80;;;;;;4998709;28;20050;-74
2022/12/26 12:41:24;;;;;;;26.80;19.58;;;17.40;83.20;;;;;;5014438;28;20057;-71
2022/12/26 12:44:06;;;;;;;29.67;20.23;;;17.50;80.10;;;;;;5001941;28;20096;-76
2022/12/26 12:47:02;;;;;;;32.63;19.30;;;17.00;81.10;;;;;;5017315;28;20044;-78
2022/12/26 12:49:48;;;;;;;30.70;18.95;;;17.80;81.80;;;;;;5034350;28;20038;-69
2022/12/26 12:52:42;;;;;;;29.67;19.00;;;17.70;77.60;;;;;;5033890;28;20037;-73
2022/12/26 12:55:25;;;;;;;28.75;19.45;;;17.70;77.90;;;;;;5017252;28;20041;-72
2022/12/26 12:58:05;;;;;;;28.58;16.90;;;17.70;78.30;;;;;;5034338;28;20037;-69
2022/12/26 13:00:39;;;;;;;;;;;17.70;78.00;;;;;;5017201;28;20401;-69
2022/12/26 13:03:32;;;;;;;31.08;18.83;;;17.60;77.60;;;;;;5000108;28;20258;-74
2022/12/26 13:06:14;;;;;;;25.63;18.20;;;17.30;77.30;;;;;;5032292;28;20080;-74
2022/12/26 13:08:59;;;;;;;25.30;16.63;;;17.50;77.60;;;;;;5014737;28;20062;-70
2022/12/26 13:12:05;;;;;;;23.05;15.73;;;17.40;76.40;;;;;;5015264;28;20050;-72
2022/12/26 13:14:39;;;;;;;26.55;18.67;;;17.50;77.30;;;;;;4956712;28;20553;-74
2022/12/26 13:17:17;;;;;;;27.27;18.08;;;17.30;75.40;;;;;;5025831;28;20057;-73
2022/12/26 13:19:47;;;;;;;28.80;18.55;;;16.90;76.10;;;;;;5000021;28;20072;-71
2022/12/26 13:25:36;;;;;;;29.55;19.73;;;17.10;77.40;;;;;;5033129;28;20135;-75
2022/12/26 13:28:12;;;;;;;28.13;17.98;;;16.80;76.40;;;;;;5016382;28;20052;-75
2022/12/26 13:30:41;;;;;;;29.20;18.30;;;16.70;76.20;;;;;;5033930;28;20069;-72
2022/12/26 13:33:13;;;;;;;26.15;18.20;;;16.90;76.20;;;;;;5000239;28;20059;-75
2022/12/26 13:35:54;;;;;;;25.20;18.02;;;17.10;76.00;;;;;;5000169;28;20435;-71
2022/12/26 13:38:24;;;;;;;30.50;17.65;;;17.30;76.20;;;;;;5014624;28;20041;-76
2022/12/26 13:44:20;;;;;;;27.88;17.55;;;17.30;75.00;;;;;;5014718;28;20056;-71
2022/12/26 13:46:57;;;;;;;29.35;18.10;;;17.40;74.70;;;;;;4999720;28;20057;-71
2022/12/26 13:49:37;;;;;;;22.77;14.10;;;16.90;75.00;;;;;;5015343;28;20401;-71
2022/12/26 13:52:11;;;;;;;;;;;16.50;74.70;;;;;;5015769;28;20204;-75
2022/12/26 13:54:47;;;;;;;22.10;13.55;;;16.20;75.00;;;;;;5017060;28;20479;-71
2022/12/26 13:57:35;;;;;;;19.10;13.57;;;16.20;76.10;;;;;;5034242;28;20042;-71
2022/12/26 14:00:05;;;;;;;19.95;14.23;;;16.10;76.20;;;;;;5033689;28;20548;-71
2022/12/26 14:02:54;;;;;;;21.70;14.35;;;16.00;77.40;;;;;;5033598;28;20115;-71
2022/12/26 14:06:06;;;;;;;34.67;18.38;;;15.90;77.00;;;;;;5018421;28;20390;-70
2022/12/26 14:09:19;;;;;;;37.90;19.92;;;15.80;77.30;;;;;;5000089;28;20076;-77
2022/12/26 14:12:01;;;;;;;38.88;19.58;;;15.80;77.90;;;;;;5015145;28;20088;-72
2022/12/26 14:15:15;;;;;;;45.05;23.30;;;15.70;77.90;;;;;;5016018;28;20053;-74
2022/12/26 14:18:03;;;;;;;46.05;25.17;;;15.40;78.70;;;;;;5013227;28;20077;-70
2022/12/26 14:20:39;;;;;;;46.03;24.90;;;15.30;79.80;;;;;;5015562;28;20057;-72
2022/12/26 14:23:54;;;;;;;45.92;25.48;;;14.90;80.50;;;;;;5033198;28;20068;-72
2022/12/26 14:26:41;;;;;;;61.80;28.17;;;14.60;81.90;;;;;;5031875;28;20076;-70
2022/12/26 14:29:26;;;;;;;51.47;27.40;;;14.40;82.90;;;;;;5016541;28;20045;-76
2022/12/26 14:32:30;;;;;;;50.47;27.15;;;14.20;84.00;;;;;;5000265;28;20060;-76
2022/12/26 14:35:25;;;;;;;52.60;26.08;;;13.80;85.10;;;;;;5000123;28;20437;-77
2022/12/26 14:38:18;;;;;;;55.05;26.00;;;13.30;86.80;;;;;;4999638;28;20100;-72
2022/12/26 14:41:04;;;;;;;49.63;26.17;;;13.00;88.70;;;;;;5000179;28;20132;-77
2022/12/26 14:43:39;;;;;;;53.55;28.40;;;12.80;89.40;;;;;;5033045;28;20052;-73
2022/12/26 14:46:30;;;;;;;48.88;25.85;;;12.70;90.40;;;;;;4999638;28;20048;-76
2022/12/26 14:49:15;;;;;;;51.00;27.27;;;12.60;91.00;;;;;;5004328;28;20146;-75
2022/12/26 14:51:46;;;;;;;55.22;28.20;;;12.60;90.90;;;;;;5001485;28;20438;-75
2022/12/26 14:54:21;;;;;;;55.35;29.13;;;12.60;91.20;;;;;;5000528;28;20046;-71
2022/12/26 14:56:54;;;;;;;53.50;29.65;;;12.70;91.80;;;;;;5017785;28;20055;-77
2022/12/26 14:59:32;;;;;;;51.75;29.42;;;12.50;91.80;;;;;;5001016;28;20519;-73
2022/12/26 15:02:01;;;;;;;50.70;29.85;;;12.50;92.40;;;;;;5016426;28;20053;-75
2022/12/26 15:05:04;;;;;;;55.75;30.33;;;12.40;93.00;;;;;;5033610;28;20045;-74
2022/12/26 15:08:26;;;;;;;58.67;29.27;;;12.10;93.40;;;;;;5034116;28;20041;-77
2022/12/26 15:10:57;;;;;;;51.85;28.38;;;12.00;94.30;;;;;;4974014;28;20070;-77
2022/12/26 15:14:10;;;;;;;53.30;29.47;;;12.00;94.40;;;;;;5014590;28;20172;-75
2022/12/26 15:16:44;;;;;;;58.08;31.13;;;11.80;95.00;;;;;;4999425;28;20132;-76
2022/12/26 15:19:27;;;;;;;57.50;30.95;;;11.70;95.60;;;;;;5033453;28;20537;-70
2022/12/26 15:22:25;;;;;;;56.33;29.02;;;11.70;96.10;;;;;;4998897;28;20072;-75
2022/12/26 15:25:08;;;;;;;53.25;28.63;;;11.80;96.20;;;;;;4999267;28;20049;-74
2022/12/26 15:28:16;;;;;;;54.13;29.92;;;11.70;96.60;;;;;;5032840;28;20045;-71
2022/12/26 15:30:58;;;;;;;52.72;27.85;;;11.70;97.00;;;;;;5015307;28;20477;-75
2022/12/26 15:33:39;;;;;;;54.97;30.90;;;11.70;97.50;;;;;;5015383;28;20127;-76
2022/12/26 15:36:29;;;;;;;54.92;28.90;;;11.70;97.90;;;;;;4998845;28;20038;-75